VIV19A MMMX-MMAA
Flight info
| Callsign | VIV19A |
|---|---|
| Flight time | 0h 44m |
| Altitude | 24000 |
| Route | TEVOS2B TEVOS UT116 ANALU ANALU1B |
| Aircraft | A320/M-SDE3FGHIRWY/LB1 |
Departure
| Time | 2026-04-24 02:03 |
|---|---|
| Airport | Mexico City Benito Juárez International Airport (MMMX) |
Arrival
| Time | 2026-04-24 02:47 |
|---|---|
| Airport | General Juan N. Álvarez International Airport (MMAA) |
| Time | Latitude | Longitude | Altitude | Speed | Heading |
|---|---|---|---|---|---|
| 2026-04-24 01:43 | 19.43345 | -99.08430 | 7473 ft | 0 kts | 330° |
| 2026-04-24 01:49 | 19.43339 | -99.08426 | 7473 ft | 2 kts | 333° |
| 2026-04-24 01:49 | 19.43324 | -99.08418 | 7467 ft | 2 kts | 339° |
| 2026-04-24 01:50 | 19.43309 | -99.08412 | 7469 ft | 2 kts | 341° |
| 2026-04-24 01:50 | 19.43293 | -99.08407 | 7467 ft | 2 kts | 346° |
| 2026-04-24 01:50 | 19.43277 | -99.08403 | 7463 ft | 2 kts | 352° |
| 2026-04-24 01:50 | 19.43260 | -99.08402 | 7461 ft | 2 kts | 13° |
| 2026-04-24 01:51 | 19.43253 | -99.08403 | 7459 ft | 0 kts | 58° |
| 2026-04-24 01:51 | 19.43253 | -99.08402 | 7459 ft | 0 kts | 58° |
| 2026-04-24 01:53 | 19.43265 | -99.08381 | 7459 ft | 6 kts | 59° |
| 2026-04-24 01:53 | 19.43287 | -99.08341 | 7458 ft | 6 kts | 60° |
| 2026-04-24 01:54 | 19.43310 | -99.08299 | 7459 ft | 7 kts | 59° |
| 2026-04-24 01:54 | 19.43335 | -99.08256 | 7459 ft | 7 kts | 59° |
| 2026-04-24 01:54 | 19.43364 | -99.08203 | 7460 ft | 10 kts | 60° |
| 2026-04-24 01:54 | 19.43402 | -99.08137 | 7461 ft | 11 kts | 59° |
| 2026-04-24 01:55 | 19.43441 | -99.08067 | 7457 ft | 11 kts | 59° |
| 2026-04-24 01:55 | 19.43482 | -99.07996 | 7460 ft | 12 kts | 57° |
| 2026-04-24 01:55 | 19.43524 | -99.07919 | 7459 ft | 13 kts | 60° |
| 2026-04-24 01:55 | 19.43571 | -99.07836 | 7457 ft | 14 kts | 59° |
| 2026-04-24 01:56 | 19.43620 | -99.07749 | 7458 ft | 14 kts | 59° |
| 2026-04-24 01:56 | 19.43670 | -99.07658 | 7459 ft | 15 kts | 59° |
| 2026-04-24 01:56 | 19.43724 | -99.07563 | 7457 ft | 15 kts | 59° |
| 2026-04-24 01:56 | 19.43778 | -99.07465 | 7458 ft | 15 kts | 59° |
| 2026-04-24 01:57 | 19.43832 | -99.07368 | 7457 ft | 15 kts | 60° |
| 2026-04-24 01:57 | 19.43886 | -99.07273 | 7461 ft | 15 kts | 59° |
| 2026-04-24 01:57 | 19.43939 | -99.07181 | 7458 ft | 14 kts | 59° |
| 2026-04-24 01:57 | 19.43987 | -99.07095 | 7457 ft | 13 kts | 59° |
| 2026-04-24 01:58 | 19.44031 | -99.07016 | 7458 ft | 12 kts | 59° |
| 2026-04-24 01:58 | 19.44072 | -99.06944 | 7458 ft | 11 kts | 59° |
| 2026-04-24 01:58 | 19.44109 | -99.06876 | 7458 ft | 11 kts | 59° |
| 2026-04-24 01:58 | 19.44156 | -99.06793 | 7457 ft | 14 kts | 59° |
| 2026-04-24 01:59 | 19.44203 | -99.06713 | 7457 ft | 12 kts | 59° |
| 2026-04-24 01:59 | 19.44243 | -99.06640 | 7457 ft | 11 kts | 59° |
| 2026-04-24 01:59 | 19.44292 | -99.06553 | 7459 ft | 15 kts | 58° |
| 2026-04-24 01:59 | 19.44339 | -99.06468 | 7459 ft | 12 kts | 59° |
| 2026-04-24 02:00 | 19.44379 | -99.06398 | 7454 ft | 10 kts | 59° |
| 2026-04-24 02:00 | 19.44407 | -99.06340 | 7457 ft | 8 kts | 76° |
| 2026-04-24 02:00 | 19.44356 | -99.06285 | 7446 ft | 15 kts | 152° |
| 2026-04-24 02:00 | 19.44311 | -99.06288 | 7446 ft | 5 kts | 224° |
| 2026-04-24 02:01 | 19.44305 | -99.06299 | 7445 ft | 0 kts | 241° |
| 2026-04-24 02:02 | 19.44226 | -99.06444 | 7437 ft | 56 kts | 239° |
| 2026-04-24 02:02 | 19.43913 | -99.06995 | 7440 ft | 115 kts | 239° |
| 2026-04-24 02:02 | 19.43417 | -99.07874 | 7442 ft | 161 kts | 239° |
| 2026-04-24 02:03 | 19.42174 | -99.10170 | 8702 ft | 180 kts | 242° |
| 2026-04-24 02:03 | 19.41551 | -99.11302 | 9108 ft | 182 kts | 239° |
| 2026-04-24 02:03 | 19.40859 | -99.12512 | 9186 ft | 201 kts | 239° |
| 2026-04-24 02:04 | 19.40098 | -99.13838 | 9274 ft | 220 kts | 239° |
| 2026-04-24 02:04 | 19.39272 | -99.15280 | 9361 ft | 237 kts | 240° |
| 2026-04-24 02:04 | 19.38333 | -99.16748 | 9684 ft | 244 kts | 226° |
| 2026-04-24 02:04 | 19.36819 | -99.17561 | 10330 ft | 253 kts | 189° |
| 2026-04-24 02:05 | 19.35072 | -99.17263 | 10866 ft | 264 kts | 152° |
| 2026-04-24 02:05 | 19.33704 | -99.15964 | 11463 ft | 268 kts | 126° |
| 2026-04-24 02:05 | 19.32703 | -99.14290 | 12109 ft | 270 kts | 117° |
| 2026-04-24 02:05 | 19.31807 | -99.12537 | 12792 ft | 271 kts | 116° |
| 2026-04-24 02:06 | 19.30898 | -99.10807 | 13467 ft | 273 kts | 117° |
| 2026-04-24 02:06 | 19.29900 | -99.09057 | 14126 ft | 276 kts | 120° |
| 2026-04-24 02:06 | 19.28848 | -99.07347 | 14684 ft | 279 kts | 121° |
| 2026-04-24 02:06 | 19.27743 | -99.05641 | 14860 ft | 281 kts | 123° |
| 2026-04-24 02:07 | 19.26570 | -99.03984 | 14888 ft | 282 kts | 133° |
| 2026-04-24 02:07 | 19.24962 | -99.02761 | 14904 ft | 296 kts | 149° |
| 2026-04-24 02:07 | 19.23106 | -99.01640 | 15017 ft | 319 kts | 149° |
| 2026-04-24 02:07 | 19.21112 | -99.00441 | 15103 ft | 340 kts | 150° |
| 2026-04-24 02:08 | 19.18989 | -98.99165 | 15185 ft | 360 kts | 150° |
| 2026-04-24 02:08 | 19.16768 | -98.97825 | 15432 ft | 372 kts | 149° |
| 2026-04-24 02:08 | 19.14504 | -98.96458 | 15900 ft | 377 kts | 149° |
| 2026-04-24 02:08 | 19.12216 | -98.95074 | 16415 ft | 380 kts | 149° |
| 2026-04-24 02:09 | 19.09915 | -98.93682 | 16945 ft | 383 kts | 149° |
| 2026-04-24 02:09 | 19.07596 | -98.92276 | 17505 ft | 386 kts | 149° |
| 2026-04-24 02:09 | 19.05260 | -98.90858 | 18053 ft | 389 kts | 149° |
| 2026-04-24 02:09 | 19.02902 | -98.89431 | 18527 ft | 392 kts | 149° |
| 2026-04-24 02:10 | 19.00524 | -98.87999 | 18994 ft | 395 kts | 150° |
| 2026-04-24 02:10 | 18.98128 | -98.86569 | 19444 ft | 398 kts | 152° |
| 2026-04-24 02:10 | 18.95563 | -98.85444 | 19892 ft | 401 kts | 164° |
| 2026-04-24 02:10 | 18.92862 | -98.84873 | 20336 ft | 403 kts | 175° |
| 2026-04-24 02:11 | 18.90053 | -98.84856 | 20783 ft | 405 kts | 187° |
| 2026-04-24 02:11 | 18.87260 | -98.85279 | 21229 ft | 407 kts | 190° |
| 2026-04-24 02:11 | 18.84455 | -98.85733 | 21679 ft | 409 kts | 190° |
| 2026-04-24 02:11 | 18.81629 | -98.86184 | 22104 ft | 412 kts | 190° |
| 2026-04-24 02:12 | 18.78745 | -98.86639 | 22553 ft | 415 kts | 190° |
| 2026-04-24 02:12 | 18.75925 | -98.87083 | 22985 ft | 417 kts | 190° |
| 2026-04-24 02:12 | 18.73040 | -98.87540 | 23408 ft | 420 kts | 190° |
| 2026-04-24 02:12 | 18.70144 | -98.88001 | 23688 ft | 422 kts | 190° |
| 2026-04-24 02:13 | 18.67238 | -98.88463 | 23772 ft | 422 kts | 190° |
| 2026-04-24 02:13 | 18.64331 | -98.88927 | 23787 ft | 423 kts | 190° |
| 2026-04-24 02:13 | 18.61419 | -98.89392 | 23780 ft | 423 kts | 190° |
| 2026-04-24 02:13 | 18.58516 | -98.89853 | 23783 ft | 423 kts | 190° |
| 2026-04-24 02:14 | 18.55609 | -98.90313 | 23784 ft | 422 kts | 190° |
| 2026-04-24 02:14 | 18.52699 | -98.90773 | 23780 ft | 423 kts | 190° |
| 2026-04-24 02:14 | 18.49754 | -98.91240 | 23780 ft | 423 kts | 190° |
| 2026-04-24 02:14 | 18.46879 | -98.91698 | 23779 ft | 423 kts | 190° |
| 2026-04-24 02:15 | 18.43972 | -98.92177 | 23781 ft | 422 kts | 192° |
| 2026-04-24 02:15 | 18.41150 | -98.93002 | 23784 ft | 421 kts | 202° |
| 2026-04-24 02:15 | 18.38421 | -98.94104 | 23782 ft | 420 kts | 202° |
| 2026-04-24 02:15 | 18.35692 | -98.95212 | 23780 ft | 420 kts | 203° |
| 2026-04-24 02:16 | 18.32963 | -98.96323 | 23784 ft | 421 kts | 203° |
| 2026-04-24 02:16 | 18.30232 | -98.97436 | 23787 ft | 421 kts | 203° |
| 2026-04-24 02:16 | 18.27497 | -98.98547 | 23788 ft | 421 kts | 203° |
| 2026-04-24 02:16 | 18.24759 | -98.99656 | 23792 ft | 422 kts | 203° |
| 2026-04-24 02:17 | 18.22018 | -99.00765 | 23792 ft | 422 kts | 203° |
| 2026-04-24 02:17 | 18.19279 | -99.01874 | 23797 ft | 422 kts | 203° |
| 2026-04-24 02:17 | 18.16536 | -99.02983 | 23802 ft | 422 kts | 202° |
| 2026-04-24 02:17 | 18.13800 | -99.04091 | 23804 ft | 422 kts | 203° |
| 2026-04-24 02:18 | 18.11060 | -99.05201 | 23812 ft | 422 kts | 202° |
| 2026-04-24 02:18 | 18.08317 | -99.06309 | 23816 ft | 422 kts | 202° |
| 2026-04-24 02:18 | 18.05576 | -99.07414 | 23817 ft | 422 kts | 202° |
| 2026-04-24 02:18 | 18.02833 | -99.08524 | 23826 ft | 422 kts | 202° |
| 2026-04-24 02:19 | 18.00090 | -99.09637 | 23832 ft | 422 kts | 202° |
| 2026-04-24 02:19 | 17.97347 | -99.10750 | 23837 ft | 422 kts | 202° |
| 2026-04-24 02:19 | 17.94606 | -99.11861 | 23843 ft | 422 kts | 202° |
| 2026-04-24 02:19 | 17.91862 | -99.12972 | 23849 ft | 423 kts | 202° |
| 2026-04-24 02:20 | 17.89112 | -99.14081 | 23859 ft | 423 kts | 202° |
| 2026-04-24 02:20 | 17.86362 | -99.15186 | 23868 ft | 423 kts | 202° |
| 2026-04-24 02:20 | 17.83610 | -99.16291 | 23875 ft | 424 kts | 202° |
| 2026-04-24 02:20 | 17.80863 | -99.17398 | 23883 ft | 424 kts | 202° |
| 2026-04-24 02:21 | 17.78106 | -99.18508 | 23893 ft | 424 kts | 202° |
| 2026-04-24 02:21 | 17.75352 | -99.19617 | 23901 ft | 423 kts | 202° |
| 2026-04-24 02:21 | 17.72650 | -99.20701 | 23856 ft | 409 kts | 202° |
| 2026-04-24 02:21 | 17.70029 | -99.21753 | 23750 ft | 398 kts | 202° |
| 2026-04-24 02:22 | 17.67481 | -99.22776 | 23646 ft | 386 kts | 202° |
| 2026-04-24 02:22 | 17.65029 | -99.23830 | 23386 ft | 378 kts | 209° |
| 2026-04-24 02:22 | 17.62732 | -99.25148 | 22988 ft | 374 kts | 211° |
| 2026-04-24 02:22 | 17.60462 | -99.26467 | 22568 ft | 372 kts | 211° |
| 2026-04-24 02:23 | 17.58207 | -99.27776 | 22182 ft | 369 kts | 210° |
| 2026-04-24 02:23 | 17.55966 | -99.29078 | 21794 ft | 367 kts | 210° |
| 2026-04-24 02:23 | 17.53738 | -99.30370 | 21408 ft | 364 kts | 210° |
| 2026-04-24 02:23 | 17.51527 | -99.31651 | 21017 ft | 362 kts | 210° |
| 2026-04-24 02:24 | 17.49317 | -99.32902 | 20636 ft | 361 kts | 206° |
| 2026-04-24 02:24 | 17.47768 | -99.33530 | 20389 ft | 360 kts | 198° |
| 2026-04-24 02:24 | 17.45383 | -99.34305 | 20015 ft | 358 kts | 198° |
| 2026-04-24 02:24 | 17.43013 | -99.35074 | 19652 ft | 356 kts | 198° |
| 2026-04-24 02:25 | 17.40653 | -99.35839 | 19311 ft | 354 kts | 198° |
| 2026-04-24 02:25 | 17.38310 | -99.36599 | 18965 ft | 351 kts | 198° |
| 2026-04-24 02:25 | 17.35983 | -99.37355 | 18631 ft | 349 kts | 198° |
| 2026-04-24 02:25 | 17.33668 | -99.38109 | 18293 ft | 347 kts | 198° |
| 2026-04-24 02:26 | 17.31369 | -99.38857 | 17927 ft | 345 kts | 198° |
| 2026-04-24 02:26 | 17.29080 | -99.39599 | 17563 ft | 343 kts | 197° |
| 2026-04-24 02:26 | 17.26805 | -99.40335 | 17190 ft | 341 kts | 198° |
| 2026-04-24 02:26 | 17.24545 | -99.41067 | 16841 ft | 339 kts | 197° |
| 2026-04-24 02:27 | 17.22300 | -99.41794 | 16490 ft | 337 kts | 198° |
| 2026-04-24 02:27 | 17.20064 | -99.42519 | 16148 ft | 335 kts | 198° |
| 2026-04-24 02:27 | 17.17844 | -99.43239 | 15797 ft | 333 kts | 198° |
| 2026-04-24 02:27 | 17.15633 | -99.43958 | 15465 ft | 331 kts | 197° |
| 2026-04-24 02:28 | 17.13438 | -99.44672 | 15123 ft | 330 kts | 198° |
| 2026-04-24 02:28 | 17.11250 | -99.45384 | 14799 ft | 328 kts | 197° |
| 2026-04-24 02:28 | 17.09072 | -99.46089 | 14496 ft | 326 kts | 197° |
| 2026-04-24 02:28 | 17.06933 | -99.46780 | 14223 ft | 324 kts | 197° |
| 2026-04-24 02:29 | 17.04788 | -99.47475 | 13918 ft | 322 kts | 197° |
| 2026-04-24 02:29 | 17.02648 | -99.48166 | 13588 ft | 321 kts | 197° |
| 2026-04-24 02:29 | 17.00522 | -99.48852 | 13246 ft | 319 kts | 197° |
| 2026-04-24 02:29 | 16.98409 | -99.49534 | 12910 ft | 317 kts | 198° |
| 2026-04-24 02:30 | 16.96307 | -99.50216 | 12639 ft | 313 kts | 198° |
| 2026-04-24 02:30 | 16.94256 | -99.50879 | 12498 ft | 304 kts | 197° |
| 2026-04-24 02:30 | 16.92260 | -99.51521 | 12382 ft | 296 kts | 197° |
| 2026-04-24 02:30 | 16.90316 | -99.52146 | 12255 ft | 288 kts | 198° |
| 2026-04-24 02:31 | 16.88430 | -99.52756 | 12130 ft | 280 kts | 198° |
| 2026-04-24 02:31 | 16.86593 | -99.53351 | 12005 ft | 273 kts | 198° |
| 2026-04-24 02:31 | 16.84804 | -99.53931 | 11880 ft | 266 kts | 198° |
| 2026-04-24 02:31 | 16.83056 | -99.54497 | 11705 ft | 261 kts | 198° |
| 2026-04-24 02:32 | 16.81326 | -99.55057 | 11457 ft | 259 kts | 198° |
| 2026-04-24 02:32 | 16.79607 | -99.55613 | 11198 ft | 258 kts | 198° |
| 2026-04-24 02:32 | 16.77997 | -99.56411 | 10939 ft | 256 kts | 218° |
| 2026-04-24 02:32 | 16.76648 | -99.57612 | 10673 ft | 255 kts | 223° |
| 2026-04-24 02:33 | 16.75313 | -99.58831 | 10374 ft | 256 kts | 222° |
| 2026-04-24 02:33 | 16.73969 | -99.60094 | 10041 ft | 258 kts | 229° |
| 2026-04-24 02:33 | 16.72987 | -99.61613 | 10006 ft | 251 kts | 248° |
| 2026-04-24 02:33 | 16.72320 | -99.63291 | 10007 ft | 252 kts | 241° |
| 2026-04-24 02:34 | 16.71117 | -99.64603 | 10009 ft | 254 kts | 210° |
| 2026-04-24 02:34 | 16.69470 | -99.65269 | 10009 ft | 255 kts | 195° |
| 2026-04-24 02:34 | 16.67762 | -99.65744 | 9762 ft | 253 kts | 194° |
| 2026-04-24 02:34 | 16.66062 | -99.66191 | 9303 ft | 252 kts | 194° |
| 2026-04-24 02:35 | 16.64369 | -99.66629 | 8857 ft | 249 kts | 194° |
| 2026-04-24 02:35 | 16.62695 | -99.67057 | 8452 ft | 246 kts | 194° |
| 2026-04-24 02:35 | 16.61043 | -99.67478 | 8041 ft | 243 kts | 194° |
| 2026-04-24 02:35 | 16.59428 | -99.67885 | 7642 ft | 241 kts | 194° |
| 2026-04-24 02:36 | 16.57805 | -99.68292 | 7395 ft | 238 kts | 194° |
| 2026-04-24 02:36 | 16.56183 | -99.68693 | 7146 ft | 236 kts | 191° |
| 2026-04-24 02:36 | 16.54568 | -99.68679 | 6892 ft | 234 kts | 162° |
| 2026-04-24 02:36 | 16.53231 | -99.67804 | 6629 ft | 232 kts | 130° |
| 2026-04-24 02:37 | 16.52487 | -99.66302 | 6337 ft | 232 kts | 108° |
| 2026-04-24 02:37 | 16.52053 | -99.64698 | 6029 ft | 233 kts | 104° |
| 2026-04-24 02:37 | 16.51656 | -99.63063 | 5729 ft | 233 kts | 104° |
| 2026-04-24 02:37 | 16.51266 | -99.61422 | 5446 ft | 233 kts | 104° |
| 2026-04-24 02:38 | 16.50880 | -99.59784 | 5165 ft | 232 kts | 104° |
| 2026-04-24 02:38 | 16.50494 | -99.58149 | 4868 ft | 232 kts | 104° |
| 2026-04-24 02:38 | 16.50172 | -99.56502 | 4576 ft | 232 kts | 90° |
| 2026-04-24 02:38 | 16.50548 | -99.54910 | 4268 ft | 228 kts | 55° |
| 2026-04-24 02:39 | 16.51685 | -99.53825 | 4044 ft | 220 kts | 22° |
| 2026-04-24 02:39 | 16.53125 | -99.53257 | 4018 ft | 223 kts | 15° |
| 2026-04-24 02:39 | 16.54610 | -99.52784 | 4015 ft | 224 kts | 14° |
| 2026-04-24 02:39 | 16.56101 | -99.52327 | 3761 ft | 223 kts | 14° |
| 2026-04-24 02:40 | 16.57595 | -99.51874 | 3495 ft | 223 kts | 14° |
| 2026-04-24 02:40 | 16.59079 | -99.51421 | 3223 ft | 222 kts | 13° |
| 2026-04-24 02:40 | 16.60553 | -99.50962 | 2943 ft | 221 kts | 13° |
| 2026-04-24 02:40 | 16.62019 | -99.50504 | 2676 ft | 219 kts | 14° |
| 2026-04-24 02:41 | 16.63475 | -99.50051 | 2401 ft | 217 kts | 11° |
| 2026-04-24 02:41 | 16.64958 | -99.49916 | 2143 ft | 212 kts | 351° |
| 2026-04-24 02:41 | 16.66350 | -99.50334 | 2034 ft | 207 kts | 327° |
| 2026-04-24 02:41 | 16.67387 | -99.51339 | 2018 ft | 204 kts | 299° |
| 2026-04-24 02:42 | 16.67962 | -99.52686 | 2022 ft | 204 kts | 290° |
| 2026-04-24 02:42 | 16.68487 | -99.54063 | 2017 ft | 205 kts | 291° |
| 2026-04-24 02:42 | 16.69014 | -99.55450 | 2017 ft | 206 kts | 291° |
| 2026-04-24 02:42 | 16.69543 | -99.56839 | 2016 ft | 206 kts | 291° |
| 2026-04-24 02:43 | 16.70072 | -99.58227 | 2015 ft | 204 kts | 291° |
| 2026-04-24 02:43 | 16.70632 | -99.59516 | 2029 ft | 185 kts | 292° |
| 2026-04-24 02:43 | 16.71073 | -99.60702 | 2004 ft | 164 kts | 289° |
| 2026-04-24 02:43 | 16.71430 | -99.61774 | 1989 ft | 152 kts | 288° |
| 2026-04-24 02:44 | 16.71754 | -99.62783 | 1988 ft | 143 kts | 288° |
| 2026-04-24 02:44 | 16.72060 | -99.63749 | 1817 ft | 139 kts | 288° |
| 2026-04-24 02:44 | 16.72360 | -99.64699 | 1665 ft | 137 kts | 287° |
| 2026-04-24 02:44 | 16.72655 | -99.65637 | 1498 ft | 136 kts | 287° |
| 2026-04-24 02:45 | 16.72950 | -99.66577 | 1314 ft | 136 kts | 287° |
| 2026-04-24 02:45 | 16.73243 | -99.67512 | 1149 ft | 135 kts | 287° |
| 2026-04-24 02:45 | 16.73535 | -99.68442 | 983 ft | 134 kts | 286° |
| 2026-04-24 02:45 | 16.73830 | -99.69382 | 810 ft | 138 kts | 287° |
| 2026-04-24 02:46 | 16.74126 | -99.70327 | 650 ft | 136 kts | 287° |
| 2026-04-24 02:46 | 16.74419 | -99.71260 | 477 ft | 134 kts | 288° |
| 2026-04-24 02:46 | 16.74705 | -99.72177 | 306 ft | 134 kts | 287° |
| 2026-04-24 02:46 | 16.74996 | -99.73117 | 110 ft | 137 kts | 287° |
| 2026-04-24 02:47 | 16.75282 | -99.74024 | 21 ft | 118 kts | 288° |
| 2026-04-24 02:47 | 16.75489 | -99.74681 | 22 ft | 76 kts | 288° |
| 2026-04-24 02:47 | 16.75627 | -99.75108 | 20 ft | 50 kts | 288° |
| 2026-04-24 02:47 | 16.75714 | -99.75388 | 23 ft | 36 kts | 289° |
| 2026-04-24 02:48 | 16.75783 | -99.75598 | 24 ft | 10 kts | 289° |
| 2026-04-24 02:48 | 16.75836 | -99.75593 | 24 ft | 10 kts | 44° |
| 2026-04-24 02:48 | 16.75871 | -99.75520 | 22 ft | 13 kts | 68° |
| 2026-04-24 02:48 | 16.75906 | -99.75435 | 23 ft | 9 kts | 57° |
| 2026-04-24 02:49 | 16.75972 | -99.75409 | 21 ft | 12 kts | 355° |
| 2026-04-24 02:49 | 16.76014 | -99.75481 | 21 ft | 14 kts | 287° |
| 2026-04-24 02:49 | 16.76047 | -99.75514 | 21 ft | 7 kts | 355° |
| 2026-04-24 02:49 | 16.76100 | -99.75499 | 21 ft | 8 kts | 18° |
| 2026-04-24 02:50 | 16.76118 | -99.75493 | 21 ft | 0 kts | 17° |